sensor_id;sensor_type;location;lat;lon;timestamp;P1;durP1;ratioP1;P2;durP2;ratioP2
14675;SDS011;7426;52.524;13.460;2022-10-16T00:00:14;378.025;;;347.425;;
14675;SDS011;7426;52.524;13.460;2022-10-16T00:02:14;556.075;;;512.6875;;
14675;SDS011;7426;52.524;13.460;2022-10-16T00:04:14;647.6500000000001;;;587.475;;
14675;SDS011;7426;52.524;13.460;2022-10-16T00:06:15;576.4000000000001;;;526.4375;;
14675;SDS011;7426;52.524;13.460;2022-10-16T00:08:14;533.7625;;;488.2625;;
14675;SDS011;7426;52.524;13.460;2022-10-16T00:10:14;518.4000000000001;;;473.7875;;
14675;SDS011;7426;52.524;13.460;2022-10-16T00:12:14;552.325;;;503.26250000000005;;
14675;SDS011;7426;52.524;13.460;2022-10-16T00:14:14;639.6875;;;580.275;;
14675;SDS011;7426;52.524;13.460;2022-10-16T00:16:14;468.125;;;431.15;;
14675;SDS011;7426;52.524;13.460;2022-10-16T00:18:14;534.675;;;489.58750000000003;;
14675;SDS011;7426;52.524;13.460;2022-10-16T00:20:14;553.1;;;507.6875;;
14675;SDS011;7426;52.524;13.460;2022-10-16T00:22:14;561.7750000000001;;;514.3;;
14675;SDS011;7426;52.524;13.460;2022-10-16T00:24:14;425.57499999999993;;;392.1875;;
14675;SDS011;7426;52.524;13.460;2022-10-16T00:26:15;448.38750000000005;;;411.83750000000003;;
14675;SDS011;7426;52.524;13.460;2022-10-16T00:28:14;407.5125;;;376.70000000000005;;
14675;SDS011;7426;52.524;13.460;2022-10-16T00:30:15;517.85;;;475.0625;;
14675;SDS011;7426;52.524;13.460;2022-10-16T00:32:14;375.425;;;342.625;;
14675;SDS011;7426;52.524;13.460;2022-10-16T00:34:14;515.05;;;475.25;;
14675;SDS011;7426;52.524;13.460;2022-10-16T00:36:15;457.725;;;418.25;;
14675;SDS011;7426;52.524;13.460;2022-10-16T00:38:14;504.675;;;465.26250000000005;;
14675;SDS011;7426;52.524;13.460;2022-10-16T00:40:15;471.45;;;434.32500000000005;;
14675;SDS011;7426;52.524;13.460;2022-10-16T00:42:15;637.675;;;577.2874999999999;;
14675;SDS011;7426;52.524;13.460;2022-10-16T00:44:48;455.275;;;419.725;;
14675;SDS011;7426;52.524;13.460;2022-10-16T00:46:15;569.7;;;522.6375;;
14675;SDS011;7426;52.524;13.460;2022-10-16T00:48:14;584.0625;;;534.65;;
14675;SDS011;7426;52.524;13.460;2022-10-16T00:50:16;579.2;;;529.3000000000001;;
14675;SDS011;7426;52.524;13.460;2022-10-16T00:52:14;382.35;;;353.05;;
14675;SDS011;7426;52.524;13.460;2022-10-16T00:54:16;610.375;;;549.5374999999999;;
14675;SDS011;7426;52.524;13.460;2022-10-16T00:56:15;560.325;;;510.175;;
14675;SDS011;7426;52.524;13.460;2022-10-16T00:58:14;485.3375;;;447.7;;
14675;SDS011;7426;52.524;13.460;2022-10-16T01:00:15;536.7750000000001;;;493.2875;;
14675;SDS011;7426;52.524;13.460;2022-10-16T01:02:14;587.2125;;;538.675;;
14675;SDS011;7426;52.524;13.460;2022-10-16T01:04:14;492.1375;;;450.9125;;
14675;SDS011;7426;52.524;13.460;2022-10-16T01:06:19;573.5625;;;526.075;;
14675;SDS011;7426;52.524;13.460;2022-10-16T01:08:16;709.8375000000001;;;645.875;;
14675;SDS011;7426;52.524;13.460;2022-10-16T01:10:17;649.3625;;;588.6625;;
14675;SDS011;7426;52.524;13.460;2022-10-16T01:12:16;665.6375;;;603.6;;
14675;SDS011;7426;52.524;13.460;2022-10-16T01:14:17;609.35;;;556.9625;;
14675;SDS011;7426;52.524;13.460;2022-10-16T01:16:16;506.725;;;464.5;;
14675;SDS011;7426;52.524;13.460;2022-10-16T01:18:14;543.5625;;;497.59999999999997;;
14675;SDS011;7426;52.524;13.460;2022-10-16T01:20:18;501.375;;;461.86249999999995;;
14675;SDS011;7426;52.524;13.460;2022-10-16T01:22:15;465.05;;;425.48749999999995;;
14675;SDS011;7426;52.524;13.460;2022-10-16T01:24:17;483.8375;;;445.15;;
14675;SDS011;7426;52.524;13.460;2022-10-16T01:26:18;521.8625;;;481.175;;
14675;SDS011;7426;52.524;13.460;2022-10-16T01:28:14;490.5375;;;451.175;;
14675;SDS011;7426;52.524;13.460;2022-10-16T01:30:16;710.3875;;;647.0749999999999;;
14675;SDS011;7426;52.524;13.460;2022-10-16T01:32:15;699.9124999999999;;;634.2625;;
14675;SDS011;7426;52.524;13.460;2022-10-16T01:34:16;623.5999999999999;;;570.15;;
14675;SDS011;7426;52.524;13.460;2022-10-16T01:36:17;674.1;;;615.2;;
14675;SDS011;7426;52.524;13.460;2022-10-16T01:38:15;726.3875;;;658.1625;;
14675;SDS011;7426;52.524;13.460;2022-10-16T01:40:15;563.225;;;517.4875;;
14675;SDS011;7426;52.524;13.460;2022-10-16T01:42:15;631.4375;;;574.6875;;
14675;SDS011;7426;52.524;13.460;2022-10-16T01:44:16;607.5125;;;554.3375;;
14675;SDS011;7426;52.524;13.460;2022-10-16T01:46:15;632.1500000000001;;;578.0125;;
14675;SDS011;7426;52.524;13.460;2022-10-16T01:48:15;515.5999999999999;;;475.31250000000006;;
14675;SDS011;7426;52.524;13.460;2022-10-16T01:50:15;379.425;;;350.6375;;
14675;SDS011;7426;52.524;13.460;2022-10-16T01:52:15;393.525;;;361.4;;
14675;SDS011;7426;52.524;13.460;2022-10-16T01:54:14;335.07500000000005;;;309.79999999999995;;
14675;SDS011;7426;52.524;13.460;2022-10-16T01:56:14;283.875;;;264.0375;;
14675;SDS011;7426;52.524;13.460;2022-10-16T01:58:14;438.04999999999995;;;404.725;;
14675;SDS011;7426;52.524;13.460;2022-10-16T02:00:14;678.8249999999999;;;618.5625;;
14675;SDS011;7426;52.524;13.460;2022-10-16T02:02:15;699.775;;;638.55;;
14675;SDS011;7426;52.524;13.460;2022-10-16T02:04:15;666.8249999999999;;;607.2125;;
14675;SDS011;7426;52.524;13.460;2022-10-16T02:06:13;812.3874999999999;;;730.525;;
14675;SDS011;7426;52.524;13.460;2022-10-16T02:08:15;723.725;;;654.9;;
14675;SDS011;7426;52.524;13.460;2022-10-16T02:10:14;697.3125;;;637.0999999999999;;
14675;SDS011;7426;52.524;13.460;2022-10-16T02:12:15;540.7125;;;491.1875;;
14675;SDS011;7426;52.524;13.460;2022-10-16T02:14:14;576.3375;;;528.3875;;
14675;SDS011;7426;52.524;13.460;2022-10-16T02:16:14;563.1;;;515.7;;
14675;SDS011;7426;52.524;13.460;2022-10-16T02:18:14;610.9;;;558.45;;
14675;SDS011;7426;52.524;13.460;2022-10-16T02:20:14;671.8375;;;612.6375;;
14675;SDS011;7426;52.524;13.460;2022-10-16T02:22:15;630.7375;;;573.8;;
14675;SDS011;7426;52.524;13.460;2022-10-16T02:24:19;698.3;;;627.6875;;
14675;SDS011;7426;52.524;13.460;2022-10-16T02:26:16;653.375;;;594.6999999999999;;
14675;SDS011;7426;52.524;13.460;2022-10-16T02:28:16;502.22499999999997;;;462.78749999999997;;
14675;SDS011;7426;52.524;13.460;2022-10-16T02:30:18;454.36249999999995;;;418.73749999999995;;
14675;SDS011;7426;52.524;13.460;2022-10-16T02:32:15;564.4625;;;514.725;;
14675;SDS011;7426;52.524;13.460;2022-10-16T02:34:14;496.0875;;;451.16249999999997;;
14675;SDS011;7426;52.524;13.460;2022-10-16T02:36:14;559.5875;;;508.675;;
14675;SDS011;7426;52.524;13.460;2022-10-16T02:38:14;669.2249999999999;;;606.4375;;
14675;SDS011;7426;52.524;13.460;2022-10-16T02:40:14;657.2875;;;597.65;;
14675;SDS011;7426;52.524;13.460;2022-10-16T02:42:14;695.1875;;;632.275;;
14675;SDS011;7426;52.524;13.460;2022-10-16T02:44:14;558.6999999999999;;;508.4625;;
14675;SDS011;7426;52.524;13.460;2022-10-16T02:46:15;510.475;;;468.325;;
14675;SDS011;7426;52.524;13.460;2022-10-16T02:48:15;603.4;;;552.9375;;
14675;SDS011;7426;52.524;13.460;2022-10-16T02:50:14;583.9124999999999;;;534.6125;;
14675;SDS011;7426;52.524;13.460;2022-10-16T02:52:14;505.20000000000005;;;461.575;;
14675;SDS011;7426;52.524;13.460;2022-10-16T02:54:14;534.6625;;;489.1625;;
14675;SDS011;7426;52.524;13.460;2022-10-16T02:56:14;551.675;;;505.825;;
14675;SDS011;7426;52.524;13.460;2022-10-16T02:58:14;541.875;;;493.4625;;
14675;SDS011;7426;52.524;13.460;2022-10-16T03:00:15;482.4625;;;444.8125;;
14675;SDS011;7426;52.524;13.460;2022-10-16T03:02:14;361.1875;;;332.425;;
14675;SDS011;7426;52.524;13.460;2022-10-16T03:04:15;214.64999999999998;;;199.45;;
14675;SDS011;7426;52.524;13.460;2022-10-16T03:06:14;304.225;;;280.9625;;
14675;SDS011;7426;52.524;13.460;2022-10-16T03:08:14;368.4875;;;340.5;;
14675;SDS011;7426;52.524;13.460;2022-10-16T03:10:14;388.7625;;;360.075;;
14675;SDS011;7426;52.524;13.460;2022-10-16T03:12:15;518.3874999999999;;;476.25;;
14675;SDS011;7426;52.524;13.460;2022-10-16T03:14:14;647.0625;;;588.7;;
14675;SDS011;7426;52.524;13.460;2022-10-16T03:16:14;578.875;;;533.525;;
14675;SDS011;7426;52.524;13.460;2022-10-16T03:18:15;552.4625;;;507.3375;;
14675;SDS011;7426;52.524;13.460;2022-10-16T03:20:14;551.05;;;504.0125;;
14675;SDS011;7426;52.524;13.460;2022-10-16T03:22:14;418.26250000000005;;;385.4625;;
14675;SDS011;7426;52.524;13.460;2022-10-16T03:24:14;484.375;;;447.95;;
14675;SDS011;7426;52.524;13.460;2022-10-16T03:26:15;490.475;;;453.0875;;
14675;SDS011;7426;52.524;13.460;2022-10-16T03:28:14;636.7375;;;585.4625000000001;;
14675;SDS011;7426;52.524;13.460;2022-10-16T03:30:14;459.5875;;;422.9375;;
14675;SDS011;7426;52.524;13.460;2022-10-16T03:32:14;335.42499999999995;;;311.17499999999995;;
14675;SDS011;7426;52.524;13.460;2022-10-16T03:34:14;390.3125;;;361.7875;;
14675;SDS011;7426;52.524;13.460;2022-10-16T03:36:14;389.05;;;359.0375;;
14675;SDS011;7426;52.524;13.460;2022-10-16T03:38:14;550.4;;;509.0625;;
14675;SDS011;7426;52.524;13.460;2022-10-16T03:40:15;499.625;;;458.8125;;
14675;SDS011;7426;52.524;13.460;2022-10-16T03:42:14;472.02500000000003;;;436.5;;
14675;SDS011;7426;52.524;13.460;2022-10-16T03:44:14;518.4749999999999;;;477.54999999999995;;
14675;SDS011;7426;52.524;13.460;2022-10-16T03:46:14;691.0625;;;632.85;;
14675;SDS011;7426;52.524;13.460;2022-10-16T03:48:14;720.975;;;662.8625;;
14675;SDS011;7426;52.524;13.460;2022-10-16T03:50:14;941.0875;;;783.375;;
14675;SDS011;7426;52.524;13.460;2022-10-16T03:52:14;898.85;;;770.3375;;
14675;SDS011;7426;52.524;13.460;2022-10-16T03:54:14;922.9625;;;768.825;;
14675;SDS011;7426;52.524;13.460;2022-10-16T03:56:14;962.25;;;848.5625;;
14675;SDS011;7426;52.524;13.460;2022-10-16T03:58:14;911.4625;;;805.5;;
14675;SDS011;7426;52.524;13.460;2022-10-16T04:00:14;877.5625;;;764.5749999999999;;
14675;SDS011;7426;52.524;13.460;2022-10-16T04:02:14;924.6375;;;802.35;;
14675;SDS011;7426;52.524;13.460;2022-10-16T04:04:14;838.8125;;;759.25;;
14675;SDS011;7426;52.524;13.460;2022-10-16T04:06:14;881.85;;;782.0875;;
14675;SDS011;7426;52.524;13.460;2022-10-16T04:08:14;941.6500000000001;;;828.775;;
14675;SDS011;7426;52.524;13.460;2022-10-16T04:10:14;879.8875;;;780.1875;;
14675;SDS011;7426;52.524;13.460;2022-10-16T04:12:14;781.9125;;;710.1624999999999;;
14675;SDS011;7426;52.524;13.460;2022-10-16T04:14:15;758.2375;;;689.3;;
14675;SDS011;7426;52.524;13.460;2022-10-16T04:16:14;837.625;;;755.4625;;
14675;SDS011;7426;52.524;13.460;2022-10-16T04:18:14;1163.8375;;;920.65;;
14675;SDS011;7426;52.524;13.460;2022-10-16T04:20:14;1277.0375;;;918.325;;
14675;SDS011;7426;52.524;13.460;2022-10-16T04:22:14;1146.6875;;;877.2625;;
14675;SDS011;7426;52.524;13.460;2022-10-16T04:24:14;1159.3249999999998;;;925.7125;;
14675;SDS011;7426;52.524;13.460;2022-10-16T04:26:14;872.5375;;;786.7;;
14675;SDS011;7426;52.524;13.460;2022-10-16T04:28:14;931.3625000000001;;;816.275;;
14675;SDS011;7426;52.524;13.460;2022-10-16T04:30:15;1124.8874999999998;;;929.1500000000001;;
14675;SDS011;7426;52.524;13.460;2022-10-16T04:32:14;1205.1875;;;914.375;;
14675;SDS011;7426;52.524;13.460;2022-10-16T04:34:15;1091.3000000000002;;;901.3;;
14675;SDS011;7426;52.524;13.460;2022-10-16T04:36:14;921.3125;;;830.7;;
14675;SDS011;7426;52.524;13.460;2022-10-16T04:38:14;965.975;;;851.275;;
14675;SDS011;7426;52.524;13.460;2022-10-16T04:40:14;886.6125;;;798.5625;;
14675;SDS011;7426;52.524;13.460;2022-10-16T04:42:14;908.225;;;809.5875;;
14675;SDS011;7426;52.524;13.460;2022-10-16T04:44:14;893.4250000000001;;;804.1125;;
14675;SDS011;7426;52.524;13.460;2022-10-16T04:46:14;1080.175;;;909.0625;;
14675;SDS011;7426;52.524;13.460;2022-10-16T04:48:14;923.575;;;814.8375;;
14675;SDS011;7426;52.524;13.460;2022-10-16T04:50:14;945.5;;;835.2249999999999;;
14675;SDS011;7426;52.524;13.460;2022-10-16T04:52:14;1037.7999999999997;;;880.8625;;
14675;SDS011;7426;52.524;13.460;2022-10-16T04:54:14;1016.3249999999999;;;852.7625;;
14675;SDS011;7426;52.524;13.460;2022-10-16T04:56:15;1118.1499999999999;;;910.4625;;
14675;SDS011;7426;52.524;13.460;2022-10-16T04:58:14;864.7875;;;772.0875000000001;;
14675;SDS011;7426;52.524;13.460;2022-10-16T05:00:14;1084.4499999999998;;;913.8375;;
14675;SDS011;7426;52.524;13.460;2022-10-16T05:02:14;933.9875000000001;;;824.2375000000001;;
14675;SDS011;7426;52.524;13.460;2022-10-16T05:04:15;702.0875;;;646.125;;
14675;SDS011;7426;52.524;13.460;2022-10-16T05:06:14;737.35;;;672.875;;
14675;SDS011;7426;52.524;13.460;2022-10-16T05:08:15;653.2;;;602.0375;;
14675;SDS011;7426;52.524;13.460;2022-10-16T05:10:14;618.5375;;;570.6625;;
14675;SDS011;7426;52.524;13.460;2022-10-16T05:12:14;644.675;;;593.4375;;
14675;SDS011;7426;52.524;13.460;2022-10-16T05:14:14;736.5875;;;675.3375;;
14675;SDS011;7426;52.524;13.460;2022-10-16T05:16:14;798.45;;;727.5;;
14675;SDS011;7426;52.524;13.460;2022-10-16T05:18:14;696.7249999999999;;;635.9625;;
14675;SDS011;7426;52.524;13.460;2022-10-16T05:20:14;629.1624999999999;;;579.4625;;
14675;SDS011;7426;52.524;13.460;2022-10-16T05:22:14;785.2625;;;715.8625;;
14675;SDS011;7426;52.524;13.460;2022-10-16T05:24:14;730.3;;;667.5250000000001;;
14675;SDS011;7426;52.524;13.460;2022-10-16T05:26:15;614.3499999999999;;;565.5625;;
14675;SDS011;7426;52.524;13.460;2022-10-16T05:28:14;749.1750000000001;;;683.6125;;
14675;SDS011;7426;52.524;13.460;2022-10-16T05:30:15;796.9124999999999;;;722.1125;;
14675;SDS011;7426;52.524;13.460;2022-10-16T05:32:15;889.2375;;;795.6125;;
14675;SDS011;7426;52.524;13.460;2022-10-16T05:34:14;951.8125;;;841.6500000000001;;
14675;SDS011;7426;52.524;13.460;2022-10-16T05:36:14;994.0625;;;872.7375;;
14675;SDS011;7426;52.524;13.460;2022-10-16T05:38:14;961.0250000000001;;;843.8375;;
14675;SDS011;7426;52.524;13.460;2022-10-16T05:40:15;929.125;;;837.75;;
14675;SDS011;7426;52.524;13.460;2022-10-16T05:42:14;967.2375;;;869.575;;
14675;SDS011;7426;52.524;13.460;2022-10-16T05:44:14;913.7625;;;796.375;;
14675;SDS011;7426;52.524;13.460;2022-10-16T05:46:14;945.25;;;842.3125;;
14675;SDS011;7426;52.524;13.460;2022-10-16T05:48:14;929.0875000000001;;;835.8625;;
14675;SDS011;7426;52.524;13.460;2022-10-16T05:50:14;987.0;;;838.35;;
14675;SDS011;7426;52.524;13.460;2022-10-16T05:52:14;970.85;;;861.825;;
14675;SDS011;7426;52.524;13.460;2022-10-16T05:54:14;1118.15;;;914.3;;
14675;SDS011;7426;52.524;13.460;2022-10-16T05:56:15;951.3;;;799.4875;;
14675;SDS011;7426;52.524;13.460;2022-10-16T05:58:14;902.4625;;;808.4;;
14675;SDS011;7426;52.524;13.460;2022-10-16T06:00:15;795.925;;;727.0375;;
14675;SDS011;7426;52.524;13.460;2022-10-16T06:02:14;806.3375000000001;;;734.3125;;
14675;SDS011;7426;52.524;13.460;2022-10-16T06:04:14;925.925;;;816.3125;;
14675;SDS011;7426;52.524;13.460;2022-10-16T06:06:15;911.8375000000001;;;811.65;;
14675;SDS011;7426;52.524;13.460;2022-10-16T06:08:14;794.5625;;;719.9749999999999;;
14675;SDS011;7426;52.524;13.460;2022-10-16T06:10:14;883.225;;;796.6999999999999;;
14675;SDS011;7426;52.524;13.460;2022-10-16T06:12:14;782.0;;;713.75;;
14675;SDS011;7426;52.524;13.460;2022-10-16T06:14:14;945.975;;;830.8499999999999;;
14675;SDS011;7426;52.524;13.460;2022-10-16T06:16:14;838.425;;;752.5875000000001;;
14675;SDS011;7426;52.524;13.460;2022-10-16T06:18:14;628.375;;;578.0125;;
14675;SDS011;7426;52.524;13.460;2022-10-16T06:20:14;847.05;;;767.0375;;
14675;SDS011;7426;52.524;13.460;2022-10-16T06:22:14;882.1875;;;778.1500000000001;;
14675;SDS011;7426;52.524;13.460;2022-10-16T06:24:14;657.7750000000001;;;601.5250000000001;;
14675;SDS011;7426;52.524;13.460;2022-10-16T06:26:15;852.575;;;766.8;;
14675;SDS011;7426;52.524;13.460;2022-10-16T06:28:15;737.9625;;;676.6625;;
14675;SDS011;7426;52.524;13.460;2022-10-16T06:30:14;824.3625;;;747.7125;;
14675;SDS011;7426;52.524;13.460;2022-10-16T06:32:15;852.275;;;750.5625;;
14675;SDS011;7426;52.524;13.460;2022-10-16T06:34:14;762.625;;;691.2625;;
14675;SDS011;7426;52.524;13.460;2022-10-16T06:36:15;839.4000000000001;;;761.2125;;
14675;SDS011;7426;52.524;13.460;2022-10-16T06:38:14;789.0500000000001;;;712.675;;
14675;SDS011;7426;52.524;13.460;2022-10-16T06:40:15;626.7;;;573.4125;;
14675;SDS011;7426;52.524;13.460;2022-10-16T06:42:15;535.1625;;;494.7875;;
14675;SDS011;7426;52.524;13.460;2022-10-16T06:44:14;565.6125;;;520.9375;;
14675;SDS011;7426;52.524;13.460;2022-10-16T06:46:14;468.5375;;;432.7375;;
14675;SDS011;7426;52.524;13.460;2022-10-16T06:48:15;550.15;;;506.375;;
14675;SDS011;7426;52.524;13.460;2022-10-16T06:50:14;278.65;;;258.9125;;
14675;SDS011;7426;52.524;13.460;2022-10-16T06:52:14;537.7625;;;497.15;;
14675;SDS011;7426;52.524;13.460;2022-10-16T06:54:15;545.9125;;;504.5875;;
14675;SDS011;7426;52.524;13.460;2022-10-16T06:56:15;610.6375;;;561.3;;
14675;SDS011;7426;52.524;13.460;2022-10-16T06:58:14;518.1875;;;478.5;;
14675;SDS011;7426;52.524;13.460;2022-10-16T07:00:15;549.35;;;500.88750000000005;;
14675;SDS011;7426;52.524;13.460;2022-10-16T07:02:15;522.5;;;482.4;;
14675;SDS011;7426;52.524;13.460;2022-10-16T07:04:14;694.1875;;;631.6375;;
14675;SDS011;7426;52.524;13.460;2022-10-16T07:06:15;664.6375;;;606.875;;
14675;SDS011;7426;52.524;13.460;2022-10-16T07:08:14;592.4000000000001;;;540.775;;
14675;SDS011;7426;52.524;13.460;2022-10-16T07:10:14;621.0875;;;571.225;;
14675;SDS011;7426;52.524;13.460;2022-10-16T07:12:14;768.325;;;688.925;;
14675;SDS011;7426;52.524;13.460;2022-10-16T07:14:15;578.1625;;;523.1875;;
14675;SDS011;7426;52.524;13.460;2022-10-16T07:16:15;523.1875;;;479.0;;
14675;SDS011;7426;52.524;13.460;2022-10-16T07:18:14;19.525;;;11.450000000000001;;
14675;SDS011;7426;52.524;13.460;2022-10-16T07:20:14;15.45;;;8.2875;;
14675;SDS011;7426;52.524;13.460;2022-10-16T07:22:14;40.425;;;35.6375;;
14675;SDS011;7426;52.524;13.460;2022-10-16T07:24:14;31.25;;;26.2875;;
14675;SDS011;7426;52.524;13.460;2022-10-16T07:26:15;22.737499999999997;;;13.3375;;
14675;SDS011;7426;52.524;13.460;2022-10-16T07:28:15;12.6;;;6.737500000000001;;
14675;SDS011;7426;52.524;13.460;2022-10-16T07:30:14;5.6625;;;1.775;;
14675;SDS011;7426;52.524;13.460;2022-10-16T07:32:14;6.487500000000001;;;1.8375;;
14675;SDS011;7426;52.524;13.460;2022-10-16T07:34:15;5.025;;;1.275;;
14675;SDS011;7426;52.524;13.460;2022-10-16T07:36:14;4.9125;;;1.6125;;
14675;SDS011;7426;52.524;13.460;2022-10-16T07:38:14;5.0375;;;1.6125;;
14675;SDS011;7426;52.524;13.460;2022-10-16T07:40:14;5.0625;;;1.4625000000000001;;
14675;SDS011;7426;52.524;13.460;2022-10-16T07:42:15;7.15;;;2.4375;;
14675;SDS011;7426;52.524;13.460;2022-10-16T07:44:15;4.975;;;1.825;;
14675;SDS011;7426;52.524;13.460;2022-10-16T07:46:15;5.275;;;2.3125;;
14675;SDS011;7426;52.524;13.460;2022-10-16T07:48:15;3.75;;;1.7374999999999998;;
14675;SDS011;7426;52.524;13.460;2022-10-16T07:50:14;4.2125;;;1.5875;;
14675;SDS011;7426;52.524;13.460;2022-10-16T07:52:14;3.6875;;;1.375;;
14675;SDS011;7426;52.524;13.460;2022-10-16T07:54:15;3.7875;;;1.8125;;
14675;SDS011;7426;52.524;13.460;2022-10-16T07:56:15;4.1625;;;1.575;;
14675;SDS011;7426;52.524;13.460;2022-10-16T07:58:14;3.9375;;;1.45;;
14675;SDS011;7426;52.524;13.460;2022-10-16T08:00:14;4.6375;;;1.7875;;
14675;SDS011;7426;52.524;13.460;2022-10-16T08:02:14;7.6125;;;2.1500000000000004;;
14675;SDS011;7426;52.524;13.460;2022-10-16T08:04:14;3.9125;;;1.425;;
14675;SDS011;7426;52.524;13.460;2022-10-16T08:06:14;4.525;;;1.6624999999999999;;
14675;SDS011;7426;52.524;13.460;2022-10-16T08:08:15;5.1625;;;1.6;;
14675;SDS011;7426;52.524;13.460;2022-10-16T08:10:15;4.875;;;1.875;;
14675;SDS011;7426;52.524;13.460;2022-10-16T08:12:14;4.5125;;;1.5375;;
14675;SDS011;7426;52.524;13.460;2022-10-16T08:14:14;5.612500000000001;;;1.75;;
14675;SDS011;7426;52.524;13.460;2022-10-16T08:16:14;5.550000000000001;;;1.875;;
14675;SDS011;7426;52.524;13.460;2022-10-16T08:18:14;4.3125;;;1.425;;
14675;SDS011;7426;52.524;13.460;2022-10-16T08:20:14;5.862499999999999;;;1.875;;
14675;SDS011;7426;52.524;13.460;2022-10-16T08:22:14;5.3999999999999995;;;1.55;;
14675;SDS011;7426;52.524;13.460;2022-10-16T08:24:14;4.362500000000001;;;1.9125;;
14675;SDS011;7426;52.524;13.460;2022-10-16T08:26:15;3.5625;;;1.675;;
14675;SDS011;7426;52.524;13.460;2022-10-16T08:28:15;4.1625;;;1.6625;;
14675;SDS011;7426;52.524;13.460;2022-10-16T08:30:14;3.175;;;1.2875;;
14675;SDS011;7426;52.524;13.460;2022-10-16T08:32:14;4.7125;;;1.4125;;
14675;SDS011;7426;52.524;13.460;2022-10-16T08:34:15;4.275;;;1.0875;;
14675;SDS011;7426;52.524;13.460;2022-10-16T08:36:14;4.625;;;1.5625;;
14675;SDS011;7426;52.524;13.460;2022-10-16T08:38:14;4.6625;;;1.4874999999999998;;
14675;SDS011;7426;52.524;13.460;2022-10-16T08:40:16;4.8125;;;1.3875000000000002;;
14675;SDS011;7426;52.524;13.460;2022-10-16T08:42:18;8.025;;;1.3375;;
14675;SDS011;7426;52.524;13.460;2022-10-16T08:44:27;5.699999999999999;;;1.175;;
14675;SDS011;7426;52.524;13.460;2022-10-16T08:46:18;5.15;;;1.4249999999999998;;
14675;SDS011;7426;52.524;13.460;2022-10-16T08:48:16;5.075;;;1.6375000000000002;;
14675;SDS011;7426;52.524;13.460;2022-10-16T08:50:17;6.5;;;1.625;;
14675;SDS011;7426;52.524;13.460;2022-10-16T08:52:14;4.525;;;1.2875;;
14675;SDS011;7426;52.524;13.460;2022-10-16T08:54:26;4.6125;;;1.2375;;
14675;SDS011;7426;52.524;13.460;2022-10-16T08:56:15;3.3874999999999997;;;1.0;;
14675;SDS011;7426;52.524;13.460;2022-10-16T08:58:15;4.7125;;;1.5;;
14675;SDS011;7426;52.524;13.460;2022-10-16T09:00:14;3.4250000000000003;;;1.1375000000000002;;
14675;SDS011;7426;52.524;13.460;2022-10-16T09:02:19;3.6374999999999997;;;1.25;;
14675;SDS011;7426;52.524;13.460;2022-10-16T09:04:37;4.3625;;;1.2374999999999998;;
14675;SDS011;7426;52.524;13.460;2022-10-16T09:06:31;3.4375;;;1.0375;;
14675;SDS011;7426;52.524;13.460;2022-10-16T09:08:15;5.1625;;;1.1625;;
14675;SDS011;7426;52.524;13.460;2022-10-16T09:10:17;6.0125;;;1.125;;
14675;SDS011;7426;52.524;13.460;2022-10-16T09:12:15;5.0875;;;1.025;;
14675;SDS011;7426;52.524;13.460;2022-10-16T09:14:18;3.8999999999999995;;;0.9249999999999999;;
14675;SDS011;7426;52.524;13.460;2022-10-16T09:16:15;6.0874999999999995;;;1.1625;;
14675;SDS011;7426;52.524;13.460;2022-10-16T09:18:15;3.7500000000000004;;;1.0125;;
14675;SDS011;7426;52.524;13.460;2022-10-16T09:20:18;2.7625;;;1.25;;
14675;SDS011;7426;52.524;13.460;2022-10-16T09:22:15;2.425;;;0.9;;
14675;SDS011;7426;52.524;13.460;2022-10-16T09:24:14;3.1875;;;1.0125000000000002;;
14675;SDS011;7426;52.524;13.460;2022-10-16T09:26:14;3.3625;;;1.4125;;
14675;SDS011;7426;52.524;13.460;2022-10-16T09:28:15;3.45;;;1.5;;
14675;SDS011;7426;52.524;13.460;2022-10-16T09:30:15;3.15;;;1.4500000000000002;;
14675;SDS011;7426;52.524;13.460;2022-10-16T09:32:17;2.3625;;;0.9125000000000001;;
14675;SDS011;7426;52.524;13.460;2022-10-16T09:34:16;3.45;;;1.2249999999999999;;
14675;SDS011;7426;52.524;13.460;2022-10-16T09:36:14;5.175;;;1.1124999999999998;;
14675;SDS011;7426;52.524;13.460;2022-10-16T09:38:24;2.625;;;0.925;;
14675;SDS011;7426;52.524;13.460;2022-10-16T09:40:23;2.3125;;;0.8875;;
14675;SDS011;7426;52.524;13.460;2022-10-16T09:42:15;2.9499999999999997;;;1.3125;;
14675;SDS011;7426;52.524;13.460;2022-10-16T09:44:17;4.112500000000001;;;1.275;;
14675;SDS011;7426;52.524;13.460;2022-10-16T09:46:21;2.6625;;;1.3;;
14675;SDS011;7426;52.524;13.460;2022-10-16T09:48:17;2.75;;;1.3250000000000002;;
14675;SDS011;7426;52.524;13.460;2022-10-16T09:50:20;2.825;;;0.95;;
14675;SDS011;7426;52.524;13.460;2022-10-16T09:52:14;3.2;;;0.925;;
14675;SDS011;7426;52.524;13.460;2022-10-16T09:54:15;3.3375;;;1.2374999999999998;;
14675;SDS011;7426;52.524;13.460;2022-10-16T09:56:21;2.2624999999999997;;;1.1375;;
14675;SDS011;7426;52.524;13.460;2022-10-16T09:58:15;3.0999999999999996;;;1.2875;;
14675;SDS011;7426;52.524;13.460;2022-10-16T10:00:15;2.6374999999999997;;;0.9999999999999999;;
14675;SDS011;7426;52.524;13.460;2022-10-16T10:02:15;4.025;;;1.25;;
14675;SDS011;7426;52.524;13.460;2022-10-16T10:04:14;2.2875;;;0.7625000000000001;;
14675;SDS011;7426;52.524;13.460;2022-10-16T10:06:17;2.7;;;1.325;;
14675;SDS011;7426;52.524;13.460;2022-10-16T10:08:14;2.1625;;;0.7875;;
14675;SDS011;7426;52.524;13.460;2022-10-16T10:10:19;3.1;;;1.35;;
14675;SDS011;7426;52.524;13.460;2022-10-16T10:12:16;3.2625;;;1.4125;;
14675;SDS011;7426;52.524;13.460;2022-10-16T10:14:17;3.6750000000000003;;;1.4125;;
14675;SDS011;7426;52.524;13.460;2022-10-16T10:16:23;2.4625;;;1.3125;;
14675;SDS011;7426;52.524;13.460;2022-10-16T10:18:15;2.6125;;;1.175;;
14675;SDS011;7426;52.524;13.460;2022-10-16T10:20:21;2.95;;;1.475;;
14675;SDS011;7426;52.524;13.460;2022-10-16T10:22:17;15.0875;;;1.225;;
14675;SDS011;7426;52.524;13.460;2022-10-16T10:24:15;2.6;;;1.2375;;
14675;SDS011;7426;52.524;13.460;2022-10-16T10:26:14;2.5999999999999996;;;1.1125;;
14675;SDS011;7426;52.524;13.460;2022-10-16T10:28:18;3.0;;;1.425;;